createdAt,value
2022-10-21T00:01:07.426Z,13.35
2022-10-21T00:03:39.073Z,12.85
2022-10-21T00:06:09.993Z,8.48
2022-10-21T00:08:39.243Z,9.05
2022-10-21T00:11:09.175Z,9.07
2022-10-21T00:13:39.741Z,8.73
2022-10-21T00:16:11.384Z,10.23
2022-10-21T00:18:41.528Z,12.18
2022-10-21T00:21:12.907Z,14.18
2022-10-21T00:23:43.940Z,14.77
2022-10-21T00:26:13.686Z,15.35
2022-10-21T00:28:42.328Z,14.55
2022-10-21T00:31:13.057Z,16.75
2022-10-21T00:33:41.492Z,16.67
2022-10-21T00:36:15.468Z,14.52
2022-10-21T00:38:45.625Z,11.93
2022-10-21T00:41:16.228Z,11.07
2022-10-21T00:44:02.395Z,9.65
2022-10-21T00:46:36.525Z,8.05
2022-10-21T00:49:12.711Z,10.75
2022-10-21T00:51:41.438Z,11.88
2022-10-21T00:54:09.910Z,16.92
2022-10-21T00:56:41.845Z,17.80
2022-10-21T00:59:09.959Z,20.25
2022-10-21T01:01:38.406Z,19.13
2022-10-21T01:04:06.459Z,19.48
2022-10-21T01:06:36.291Z,21.08
2022-10-21T01:09:05.930Z,22.17
2022-10-21T01:11:41.714Z,21.17
2022-10-21T01:14:12.823Z,17.85
2022-10-21T01:16:59.535Z,20.30
2022-10-21T01:19:30.365Z,17.55
2022-10-21T01:22:15.074Z,18.65
2022-10-21T01:24:58.764Z,19.15
2022-10-21T01:27:33.728Z,18.75
2022-10-21T01:30:13.373Z,19.25
2022-10-21T01:32:48.184Z,19.25
2022-10-21T01:35:38.805Z,17.85
2022-10-21T01:38:24.720Z,20.13
2022-10-21T01:41:39.376Z,20.08
2022-10-21T01:44:18.927Z,21.42
2022-10-21T01:47:26.177Z,19.35
2022-10-21T01:50:00.814Z,21.13
2022-10-21T01:52:30.429Z,19.50
2022-10-21T01:55:10.391Z,20.35
2022-10-21T01:57:42.641Z,19.33
2022-10-21T02:00:11.710Z,18.40
2022-10-21T02:02:43.291Z,17.67
2022-10-21T02:05:18.017Z,17.60
2022-10-21T02:07:45.931Z,16.08
2022-10-21T02:10:14.430Z,16.90
2022-10-21T02:12:45.729Z,17.20
2022-10-21T02:15:16.203Z,14.63
2022-10-21T02:17:52.203Z,13.60
2022-10-21T02:20:21.975Z,12.30
2022-10-21T02:22:50.312Z,14.60
2022-10-21T02:25:26.198Z,12.13
2022-10-21T02:27:54.790Z,12.85
2022-10-21T02:30:23.160Z,13.38
2022-10-21T02:33:09.123Z,12.20
2022-10-21T02:35:42.543Z,13.45
2022-10-21T02:38:23.954Z,15.77
2022-10-21T02:41:02.457Z,17.33
2022-10-21T02:43:34.671Z,15.45
2022-10-21T02:46:11.446Z,14.57
2022-10-21T02:48:41.169Z,14.52
2022-10-21T02:51:09.792Z,13.57
2022-10-21T02:53:37.572Z,15.95
2022-10-21T02:56:06.183Z,16.48
2022-10-21T02:58:33.992Z,17.25
2022-10-21T03:01:02.495Z,15.43
2022-10-21T03:03:30.398Z,16.02
2022-10-21T03:06:01.893Z,16.23
2022-10-21T03:08:29.731Z,16.48
2022-10-21T03:10:58.088Z,16.65
2022-10-21T03:13:25.876Z,14.13
2022-10-21T03:15:53.939Z,14.55
2022-10-21T03:18:24.094Z,13.27
2022-10-21T03:20:52.355Z,13.95
2022-10-21T03:23:20.966Z,13.55
2022-10-21T03:25:49.497Z,14.23
2022-10-21T03:28:20.944Z,14.50
2022-10-21T03:30:49.193Z,13.68
2022-10-21T03:33:17.059Z,13.73
2022-10-21T03:35:45.212Z,14.13
2022-10-21T03:38:13.234Z,13.57
2022-10-21T03:40:41.349Z,13.73
2022-10-21T03:43:09.122Z,13.93
2022-10-21T03:45:37.352Z,13.88
2022-10-21T03:48:05.232Z,12.98
2022-10-21T03:50:33.434Z,14.30
2022-10-21T03:53:09.769Z,14.27
2022-10-21T03:55:41.885Z,15.40
2022-10-21T03:58:09.641Z,14.02
2022-10-21T04:00:38.187Z,14.52
2022-10-21T04:03:05.934Z,18.13
2022-10-21T04:05:34.608Z,18.13
2022-10-21T04:08:02.804Z,18.20
2022-10-21T04:10:30.813Z,18.30
2022-10-21T04:12:58.641Z,16.88
2022-10-21T04:15:26.970Z,16.80
2022-10-21T04:17:54.737Z,18.17
2022-10-21T04:20:25.033Z,11.05
2022-10-21T04:22:52.835Z,14.50
2022-10-21T04:25:20.950Z,14.70
2022-10-21T04:27:48.849Z,15.93
2022-10-21T04:30:17.021Z,15.48
2022-10-21T04:32:44.911Z,16.98
2022-10-21T04:35:13.847Z,16.63
2022-10-21T04:37:44.833Z,17.60
2022-10-21T04:40:12.960Z,18.98
2022-10-21T04:42:40.893Z,16.45
2022-10-21T04:45:09.521Z,18.13
2022-10-21T04:47:37.566Z,16.48
2022-10-21T04:50:06.382Z,18.15
2022-10-21T04:52:34.113Z,17.15
2022-10-21T04:55:02.316Z,17.40
2022-10-21T04:57:30.120Z,17.67
2022-10-21T05:00:01.150Z,17.08
2022-10-21T05:02:29.002Z,17.42
2022-10-21T05:04:57.473Z,17.40
2022-10-21T05:07:25.341Z,16.67
2022-10-21T05:09:53.407Z,16.42
2022-10-21T05:12:21.292Z,15.27
2022-10-21T05:14:49.662Z,15.43
2022-10-21T05:17:17.426Z,16.48
2022-10-21T05:19:45.600Z,15.48
2022-10-21T05:22:13.452Z,15.70
2022-10-21T05:24:41.546Z,17.35
2022-10-21T05:27:09.526Z,18.15
2022-10-21T05:29:37.582Z,16.90
2022-10-21T05:32:05.795Z,16.52
2022-10-21T05:34:34.196Z,16.27
2022-10-21T05:37:01.969Z,15.55
2022-10-21T05:39:33.003Z,15.88
2022-10-21T05:42:00.816Z,15.93
2022-10-21T05:44:28.975Z,15.77
2022-10-21T05:46:57.111Z,15.40
2022-10-21T05:49:25.294Z,15.85
2022-10-21T05:51:53.156Z,14.73
2022-10-21T05:54:21.304Z,15.90
2022-10-21T05:56:49.694Z,15.50
2022-10-21T05:59:17.917Z,15.15
2022-10-21T06:01:45.843Z,14.23
2022-10-21T06:04:14.102Z,14.32
2022-10-21T06:06:42.046Z,14.75
2022-10-21T06:09:10.163Z,14.15
2022-10-21T06:11:38.295Z,14.35
2022-10-21T06:14:06.463Z,13.93
2022-10-21T06:16:36.881Z,15.75
2022-10-21T06:21:32.706Z,13.02
2022-10-21T06:24:00.999Z,12.88
2022-10-21T06:26:30.951Z,12.88
2022-10-21T06:29:01.446Z,12.73
2022-10-21T06:31:29.266Z,13.13
2022-10-21T06:33:57.323Z,12.30
2022-10-21T06:36:25.101Z,13.05
2022-10-21T06:38:53.235Z,12.38
2022-10-21T06:41:20.966Z,11.68
2022-10-21T06:43:49.048Z,11.98
2022-10-21T06:46:20.676Z,13.15
2022-10-21T06:48:55.146Z,11.95
2022-10-21T06:51:26.112Z,12.27
2022-10-21T06:54:03.851Z,12.98
2022-10-21T06:56:33.913Z,12.20
2022-10-21T06:59:08.023Z,12.00
2022-10-21T07:04:27.016Z,11.45
2022-10-21T07:06:59.665Z,11.40
2022-10-21T07:09:33.605Z,11.68
2022-10-21T07:12:02.307Z,11.20
2022-10-21T07:14:31.063Z,11.57
2022-10-21T07:17:06.813Z,11.80
2022-10-21T07:19:35.017Z,11.57
2022-10-21T07:22:02.889Z,10.98
2022-10-21T07:24:33.489Z,12.07
2022-10-21T07:27:04.328Z,12.25
2022-10-21T07:29:35.889Z,10.68
2022-10-21T07:32:04.670Z,11.20
2022-10-21T07:34:33.298Z,11.50
2022-10-21T07:37:01.135Z,10.60
2022-10-21T07:39:31.474Z,10.68
2022-10-21T07:41:59.302Z,10.60
2022-10-21T07:44:32.506Z,11.27
2022-10-21T07:47:00.333Z,10.85
2022-10-21T07:49:28.457Z,10.43
2022-10-21T07:51:58.482Z,10.15
2022-10-21T07:54:28.899Z,9.00
2022-10-21T07:57:04.092Z,9.50
2022-10-21T07:59:32.255Z,10.07
2022-10-21T08:02:04.792Z,10.07
2022-10-21T08:04:39.710Z,9.85
2022-10-21T08:07:13.179Z,8.95
2022-10-21T08:09:42.110Z,9.20
2022-10-21T08:12:15.476Z,9.10
2022-10-21T08:14:44.548Z,8.82
2022-10-21T08:17:14.413Z,8.52
2022-10-21T08:19:45.666Z,14.25
2022-10-21T08:22:21.276Z,21.33
2022-10-21T08:24:52.185Z,10.45
2022-10-21T08:27:20.225Z,8.70
2022-10-21T08:29:49.078Z,8.40
2022-10-21T08:32:20.783Z,7.85
2022-10-21T08:34:51.027Z,8.40
2022-10-21T08:37:25.923Z,8.38
2022-10-21T08:39:57.436Z,9.50
2022-10-21T08:42:32.076Z,8.55
2022-10-21T08:45:03.730Z,8.65
2022-10-21T08:47:46.129Z,7.95
2022-10-21T08:50:22.007Z,6.90
2022-10-21T08:53:02.007Z,7.75
2022-10-21T08:55:42.345Z,7.00
2022-10-21T08:58:24.292Z,7.70
2022-10-21T09:01:01.980Z,7.22
2022-10-21T09:03:36.512Z,7.40
2022-10-21T09:06:16.732Z,7.40
2022-10-21T09:08:58.261Z,12.13
2022-10-21T09:11:35.182Z,9.18
2022-10-21T09:14:25.958Z,8.82
2022-10-21T09:17:27.543Z,7.72
2022-10-21T09:20:27.558Z,7.10
2022-10-21T09:22:58.767Z,7.80
2022-10-21T09:25:47.597Z,7.28
2022-10-21T09:28:17.939Z,7.07
2022-10-21T09:30:47.098Z,7.22
2022-10-21T09:33:30.183Z,8.10
2022-10-21T09:36:03.750Z,6.88
2022-10-21T09:38:53.666Z,7.68
2022-10-21T09:41:30.520Z,7.65
2022-10-21T09:43:58.811Z,6.40
2022-10-21T09:46:26.695Z,7.47
2022-10-21T09:49:32.445Z,7.85
2022-10-21T09:51:46.481Z,6.70
2022-10-21T09:54:23.099Z,6.13
2022-10-21T09:57:07.198Z,7.15
2022-10-21T10:00:00.399Z,6.97
2022-10-21T10:02:47.745Z,4.72
2022-10-21T10:05:41.517Z,6.43
2022-10-21T10:12:00.475Z,6.57
2022-10-21T10:14:39.052Z,7.03
2022-10-21T10:17:29.406Z,6.20
2022-10-21T10:20:20.867Z,6.40
2022-10-21T10:23:08.519Z,6.50
2022-10-21T10:25:39.166Z,6.97
2022-10-21T10:30:48.832Z,5.80
2022-10-21T10:33:28.197Z,6.45
2022-10-21T10:36:05.194Z,6.82
2022-10-21T10:38:45.569Z,9.52
2022-10-21T10:41:20.897Z,6.53
2022-10-21T10:43:58.019Z,6.25
2022-10-21T10:46:37.082Z,5.38
2022-10-21T10:49:14.672Z,6.38
2022-10-21T10:51:45.865Z,5.65
2022-10-21T10:54:28.774Z,6.18
2022-10-21T10:57:40.229Z,5.97
2022-10-21T11:00:20.706Z,6.03
2022-10-21T11:02:53.143Z,6.25
2022-10-21T11:05:49.577Z,6.93
2022-10-21T11:08:20.064Z,5.85
2022-10-21T11:11:02.757Z,6.03
2022-10-21T11:13:34.108Z,5.53
2022-10-21T11:16:15.336Z,6.20
2022-10-21T11:19:08.230Z,6.03
2022-10-21T11:21:52.625Z,6.38
2022-10-21T11:24:31.364Z,5.95
2022-10-21T11:27:09.229Z,5.93
2022-10-21T11:29:58.574Z,5.82
2022-10-21T11:33:01.077Z,5.40
2022-10-21T11:36:01.272Z,7.70
2022-10-21T11:39:21.985Z,9.33
2022-10-21T11:41:56.731Z,6.20
2022-10-21T11:44:29.908Z,6.90
2022-10-21T11:47:20.685Z,7.28
2022-10-21T11:49:51.673Z,6.25
2022-10-21T11:52:58.262Z,7.68
2022-10-21T11:55:38.932Z,8.98
2022-10-21T11:58:08.382Z,7.50
2022-10-21T12:01:00.789Z,6.95
2022-10-21T12:03:31.522Z,7.75
2022-10-21T12:06:04.786Z,7.72
2022-10-21T12:08:48.278Z,6.70
2022-10-21T12:11:35.783Z,10.25
2022-10-21T12:14:37.551Z,8.63
2022-10-21T12:17:20.204Z,9.18
2022-10-21T12:20:04.152Z,8.77
2022-10-21T12:22:34.150Z,9.75
2022-10-21T12:25:09.406Z,8.15
2022-10-21T12:28:09.712Z,8.38
2022-10-21T12:30:54.073Z,7.65
2022-10-21T12:33:42.021Z,8.15
2022-10-21T12:36:24.961Z,7.68
2022-10-21T12:38:59.606Z,7.18
2022-10-21T12:41:39.384Z,7.97
2022-10-21T12:44:25.164Z,8.20
2022-10-21T12:47:01.630Z,7.85
2022-10-21T12:49:36.032Z,7.43
2022-10-21T12:52:22.024Z,8.45
2022-10-21T12:55:17.055Z,7.68
2022-10-21T12:57:45.273Z,8.65
2022-10-21T13:00:25.536Z,8.60
2022-10-21T13:03:13.010Z,8.25
2022-10-21T13:05:41.009Z,8.05
2022-10-21T13:08:19.494Z,9.32
2022-10-21T13:11:05.875Z,8.48
2022-10-21T13:13:33.904Z,9.80
2022-10-21T13:16:20.125Z,8.75
2022-10-21T13:19:01.762Z,7.43
2022-10-21T13:21:29.907Z,7.53
2022-10-21T13:24:25.476Z,7.93
2022-10-21T13:27:03.939Z,7.75
2022-10-21T13:29:34.806Z,8.25
2022-10-21T13:32:15.168Z,8.25
2022-10-21T13:34:49.670Z,7.97
2022-10-21T13:37:26.082Z,9.25
2022-10-21T13:39:56.815Z,9.45
2022-10-21T13:42:41.793Z,8.40
2022-10-21T13:45:33.086Z,8.77
2022-10-21T13:48:17.697Z,11.57
2022-10-21T13:50:49.103Z,10.02
2022-10-21T13:53:36.624Z,11.88
2022-10-21T13:56:07.205Z,10.93
2022-10-21T14:01:25.777Z,8.80
2022-10-21T14:04:14.805Z,8.32
2022-10-21T14:06:48.498Z,8.35
2022-10-21T14:09:26.326Z,7.90
2022-10-21T14:12:07.758Z,8.30
2022-10-21T14:14:39.392Z,9.85
2022-10-21T14:17:09.508Z,10.05
2022-10-21T14:19:39.159Z,8.98
2022-10-21T14:22:10.129Z,10.52
2022-10-21T14:24:45.275Z,9.35
2022-10-21T14:27:16.038Z,9.57
2022-10-21T14:29:45.294Z,11.82
2022-10-21T14:32:20.360Z,10.80
2022-10-21T14:35:10.545Z,13.85
2022-10-21T14:37:53.134Z,12.60
2022-10-21T14:40:37.449Z,11.82
2022-10-21T14:43:32.241Z,16.33
2022-10-21T14:46:01.126Z,10.98
2022-10-21T14:48:32.432Z,10.48
2022-10-21T14:51:05.275Z,11.00
2022-10-21T14:53:44.274Z,14.40
2022-10-21T14:56:18.878Z,21.45
2022-10-21T14:58:55.324Z,34.35
2022-10-21T15:01:24.046Z,24.30
2022-10-21T15:04:03.666Z,28.77
2022-10-21T15:06:37.732Z,18.90
2022-10-21T15:09:11.725Z,14.65
2022-10-21T15:11:47.371Z,18.83
2022-10-21T15:14:18.004Z,14.60
2022-10-21T15:19:25.327Z,12.40
2022-10-21T15:21:59.160Z,13.23
2022-10-21T15:24:29.958Z,15.85
2022-10-21T15:27:06.747Z,19.50
2022-10-21T15:29:46.887Z,21.05
2022-10-21T15:32:25.469Z,16.27
2022-10-21T15:35:16.075Z,16.17
2022-10-21T15:37:49.816Z,14.98
2022-10-21T15:40:19.101Z,15.25
2022-10-21T15:42:56.953Z,14.40
2022-10-21T15:45:24.971Z,14.13
2022-10-21T15:47:57.968Z,11.98
2022-10-21T15:50:28.655Z,15.20
2022-10-21T15:53:01.806Z,12.60
2022-10-21T15:55:32.872Z,11.85
2022-10-21T15:58:08.898Z,10.63
2022-10-21T16:00:40.943Z,10.40
2022-10-21T16:03:09.423Z,9.23
2022-10-21T16:05:38.779Z,9.82
2022-10-21T16:08:06.978Z,13.40
2022-10-21T16:10:36.850Z,9.57
2022-10-21T16:13:05.156Z,10.50
2022-10-21T16:15:32.953Z,10.27
2022-10-21T16:18:01.590Z,9.38
2022-10-21T16:20:33.815Z,11.48
2022-10-21T16:23:07.940Z,10.75
2022-10-21T16:25:38.192Z,11.13
2022-10-21T16:28:06.366Z,13.98
2022-10-21T16:30:37.209Z,14.55
2022-10-21T16:33:06.297Z,12.77
2022-10-21T16:35:34.094Z,11.65
2022-10-21T16:38:06.245Z,12.63
2022-10-21T16:40:35.379Z,14.07
2022-10-21T16:43:03.468Z,28.17
2022-10-21T16:45:34.943Z,31.65
2022-10-21T16:48:05.163Z,23.45
2022-10-21T16:50:40.718Z,18.95
2022-10-21T16:53:14.961Z,12.73
2022-10-21T16:55:43.062Z,13.98
2022-10-21T16:58:11.636Z,12.93
2022-10-21T17:00:41.514Z,12.85
2022-10-21T17:03:12.968Z,15.07
2022-10-21T17:05:43.461Z,13.88
2022-10-21T17:08:14.588Z,13.48
2022-10-21T17:10:45.193Z,13.65
2022-10-21T17:15:41.109Z,14.48
2022-10-21T17:18:11.857Z,13.68
2022-10-21T17:20:45.636Z,13.85
2022-10-21T17:23:13.816Z,14.32
2022-10-21T17:25:41.567Z,13.43
2022-10-21T17:28:09.675Z,13.63
2022-10-21T17:30:37.441Z,11.73
2022-10-21T17:33:08.349Z,10.68
2022-10-21T17:35:38.701Z,10.80
2022-10-21T17:38:07.158Z,11.38
2022-10-21T17:40:34.953Z,11.63
2022-10-21T17:43:03.056Z,13.90
2022-10-21T17:45:30.764Z,12.85
2022-10-21T17:47:58.966Z,12.02
2022-10-21T17:50:26.922Z,10.93
2022-10-21T17:52:55.511Z,12.35
2022-10-21T17:55:24.388Z,12.25
2022-10-21T17:57:53.593Z,12.38
2022-10-21T18:00:21.502Z,12.80
2022-10-21T18:02:49.630Z,10.07
2022-10-21T18:05:17.810Z,10.65
2022-10-21T18:07:46.013Z,11.07
2022-10-21T18:10:13.808Z,11.30
2022-10-21T18:12:42.026Z,17.40
2022-10-21T18:15:10.504Z,19.73
2022-10-21T18:17:40.268Z,18.15
2022-10-21T18:20:08.936Z,16.00
2022-10-21T18:22:37.154Z,18.70
2022-10-21T18:25:05.237Z,15.05
2022-10-21T18:27:33.425Z,10.95
2022-10-21T18:30:03.303Z,12.13
2022-10-21T18:32:31.573Z,10.93
2022-10-21T18:34:59.510Z,10.77
2022-10-21T18:37:31.733Z,13.60
2022-10-21T18:39:59.477Z,16.33
2022-10-21T18:42:28.250Z,15.65
2022-10-21T18:44:56.199Z,17.83
2022-10-21T18:47:28.324Z,17.73
2022-10-21T18:49:56.079Z,16.52
2022-10-21T18:52:24.199Z,11.77
2022-10-21T18:54:51.944Z,11.18
2022-10-21T18:57:20.145Z,11.90
2022-10-21T18:59:47.987Z,12.90
2022-10-21T19:02:20.961Z,11.25
2022-10-21T19:04:49.333Z,11.93
2022-10-21T19:07:18.843Z,10.70
2022-10-21T19:09:47.505Z,13.05
2022-10-21T19:12:19.769Z,11.43
2022-10-21T19:14:51.539Z,10.63
2022-10-21T19:17:20.015Z,11.63
2022-10-21T19:19:47.795Z,12.38
2022-10-21T19:22:17.573Z,11.80
2022-10-21T19:24:45.447Z,12.38
2022-10-21T19:27:13.584Z,11.35
2022-10-21T19:29:41.530Z,11.43
2022-10-21T19:32:09.767Z,12.30
2022-10-21T19:34:37.495Z,11.40
2022-10-21T19:37:05.533Z,11.50
2022-10-21T19:39:33.226Z,9.73
2022-10-21T19:42:01.331Z,9.95
2022-10-21T19:44:29.101Z,12.38
2022-10-21T19:46:57.135Z,10.63
2022-10-21T19:49:24.883Z,11.77
2022-10-21T19:51:53.277Z,12.57
2022-10-21T19:54:21.280Z,10.23
2022-10-21T19:56:49.272Z,10.30
2022-10-21T20:02:05.073Z,12.95
2022-10-21T20:04:35.274Z,10.80
2022-10-21T20:07:04.216Z,11.35
2022-10-21T20:09:33.941Z,11.73
2022-10-21T20:12:05.204Z,9.45
2022-10-21T20:14:33.121Z,8.98
2022-10-21T20:17:01.161Z,9.48
2022-10-21T20:19:29.023Z,8.45
2022-10-21T20:21:57.177Z,9.50
2022-10-21T20:24:24.825Z,9.35
2022-10-21T20:26:54.049Z,8.80
2022-10-21T20:29:23.201Z,8.40
2022-10-21T20:31:51.349Z,8.57
2022-10-21T20:34:19.138Z,8.25
2022-10-21T20:36:47.284Z,7.65
2022-10-21T20:39:15.105Z,7.68
2022-10-21T20:41:43.192Z,8.18
2022-10-21T20:44:16.450Z,9.63
2022-10-21T20:46:45.379Z,8.95
2022-10-21T20:49:13.638Z,8.27
2022-10-21T20:51:42.727Z,9.88
2022-10-21T20:54:14.883Z,10.13
2022-10-21T20:56:43.443Z,9.73
2022-10-21T20:59:15.644Z,9.40
2022-10-21T21:01:46.586Z,9.45
2022-10-21T21:04:17.482Z,10.07
2022-10-21T21:06:47.732Z,10.35
2022-10-21T21:09:50.590Z,9.65
2022-10-21T21:12:07.451Z,9.38
2022-10-21T21:14:35.300Z,9.70
2022-10-21T21:17:03.985Z,8.65
2022-10-21T21:19:32.562Z,8.85
2022-10-21T21:22:00.737Z,9.98
2022-10-21T21:24:28.497Z,9.15
2022-10-21T21:26:56.586Z,9.32
2022-10-21T21:29:24.379Z,9.18
2022-10-21T21:31:52.479Z,8.13
2022-10-21T21:34:20.276Z,8.60
2022-10-21T21:36:51.081Z,7.90
2022-10-21T21:39:18.822Z,8.15
2022-10-21T21:41:46.972Z,8.80
2022-10-21T21:44:14.913Z,8.88
2022-10-21T21:46:43.015Z,8.73
2022-10-21T21:49:10.793Z,9.55
2022-10-21T21:51:40.210Z,8.55
2022-10-21T21:54:08.099Z,7.57
2022-10-21T21:56:36.916Z,8.05
2022-10-21T21:59:06.195Z,8.25
2022-10-21T22:01:34.634Z,7.85
2022-10-21T22:04:03.143Z,9.00
2022-10-21T22:06:34.157Z,9.93
2022-10-21T22:09:02.876Z,7.57
2022-10-21T22:11:33.337Z,8.52
2022-10-21T22:14:02.019Z,8.38
2022-10-21T22:16:30.658Z,9.02
2022-10-21T22:19:00.797Z,7.90
2022-10-21T22:21:31.139Z,8.88
2022-10-21T22:23:59.360Z,8.77
2022-10-21T22:26:27.814Z,8.07
2022-10-21T22:28:56.153Z,8.32
2022-10-21T22:31:29.137Z,8.50
2022-10-21T22:34:00.852Z,7.85
2022-10-21T22:36:28.905Z,7.47
2022-10-21T22:38:57.390Z,7.68
2022-10-21T22:41:26.039Z,8.13
2022-10-21T22:43:53.831Z,7.90
2022-10-21T22:46:33.509Z,8.18
2022-10-21T22:49:04.328Z,7.75
2022-10-21T22:51:33.562Z,8.00
2022-10-21T22:54:02.000Z,7.68
2022-10-21T22:56:30.734Z,8.38
2022-10-21T22:58:59.050Z,9.05
2022-10-21T23:01:31.281Z,9.63
2022-10-21T23:04:03.895Z,11.73
2022-10-21T23:06:33.908Z,8.25
2022-10-21T23:09:03.331Z,8.77
2022-10-21T23:11:32.468Z,7.97
2022-10-21T23:14:08.509Z,9.48
2022-10-21T23:16:37.821Z,13.93
2022-10-21T23:19:07.855Z,12.98
2022-10-21T23:21:40.062Z,12.32
2022-10-21T23:24:08.243Z,11.50
2022-10-21T23:26:36.402Z,10.75
2022-10-21T23:29:04.875Z,10.55
2022-10-21T23:31:32.895Z,9.80
2022-10-21T23:34:00.719Z,8.40
2022-10-21T23:36:28.843Z,8.40
2022-10-21T23:38:57.069Z,10.35
2022-10-21T23:41:25.336Z,9.85
2022-10-21T23:43:53.197Z,8.10
2022-10-21T23:46:22.778Z,8.45
2022-10-21T23:48:50.856Z,8.63
2022-10-21T23:51:19.524Z,8.38
2022-10-21T23:53:47.499Z,8.40
2022-10-21T23:56:15.589Z,7.82
2022-10-21T23:58:43.450Z,8.85
